Airfield :
LOGIN :

Register | Disclaimer

   EN    FR    IT 

 










Legend :    VFR   Marginal VFR   IFR   Intensive IFR   Very Intensive IFR
Visi :
Ceiling :
>= 8 km
>= 3000ft
5 to 8 km
1000 to 3000 ft
1500m to 5 km
500 to 1000 ft
800 to 1500m
200 to 500 ft
< 800m
< 200 ft
Symbols :   Thunderstorms  Fog  Heavy snow  Heavy precipitations  Wind > 20 kt
SIGMETs :     Misc.  Thunderstorms  Icing  Turbulence  Mountain Waves  Volcanic Ashes






- Airport Elevation : 138 ft
- IATA code : BIO


LEBB - Bilbao

CURRENT METAR :
  • 062300Z AUTO VRB02KT 9999 FEW018 BKN025 BKN030 18/17 Q1028

EXPIRED METARs :
  • 062230Z VRB02KT 9999 FEW018 SCT025 17/16 Q1028 NOSIG
  • 062200Z 27002KT 9999 FEW018 18/17 Q1028 NOSIG
  • 062130Z VRB02KT 9999 FEW016 18/17 Q1028 NOSIG
  • 062100Z 32003KT 290V020 9999 FEW016 19/17 Q1028 NOSIG
  • 062030Z 31003KT 9999 FEW016 19/17 Q1027 NOSIG

TAF TAF LEBB
Valid from the 06 at 18:00 until the 07 at 18:00 UTC


061700Z 0618/0718 32009KT 9999 FEW018 SCT025 TX24/0714Z TN14/0704Z
BECMG 0618/0621 VRB06KT
PROB30
TEMPO 0621/0704 BKN014
PROB40
TEMPO 0704/0707 3000 BR BKN010
BECMG 0708/0710 32010KT



MET'MAP, your aeronautical weather chart ! - Copyright ORBIFLY December 2007 - Disclaimer

ORBIFLY MET'MAP TEAM :

Programming & Development : Alexandra Zaïnal
Original concept : Baudouin d'Aumeries
Technical & hardware support : Manuel Goepfert
Assistance : Marc-Olivier Méhu




SOURCES & CREDITS :

   NOAA